Time;durP1;ratioP1;P1;durP2;ratioP2;P2;SDS_P1;SDS_P2;PMS_P1;PMS_P2;Temp;Humidity;BMP_temperature;BMP_pressure;BME280_temperature;BME280_humidity;BME280_pressure;Samples;Min_cycle;Max_cycle;Signal;HPM_P1;HPM_P2
2022/06/17 00:01:05;;;;;;;1.57;1.10;;;17.40;79.10;;;;;;4153220;28;20212;-81
2022/06/17 00:03:07;;;;;;;1.53;1.00;;;17.40;77.80;;;;;;4154332;28;20213;-81
2022/06/17 00:05:10;;;;;;;1.57;1.10;;;17.30;78.20;;;;;;4148152;28;20208;-81
2022/06/17 00:07:15;;;;;;;2.17;1.13;;;17.30;78.50;;;;;;4150861;28;20259;-81
2022/06/17 00:09:19;;;;;;;1.60;1.20;;;17.20;78.50;;;;;;4152509;28;20245;-81
2022/06/17 00:11:24;;;;;;;3.30;1.30;;;17.20;80.20;;;;;;4142903;28;20238;-81
2022/06/17 00:13:26;;;;;;;1.60;1.10;;;17.20;81.10;;;;;;4159068;28;20271;-81
2022/06/17 00:15:27;;;;;;;2.03;1.30;;;17.20;80.30;;;;;;4172824;28;20279;-81
2022/06/17 00:17:31;;;;;;;1.93;1.20;;;17.10;81.60;;;;;;4171034;28;20291;-81
2022/06/17 00:19:33;;;;;;;2.83;1.50;;;17.10;82.20;;;;;;4155657;28;20419;-81
2022/06/17 00:21:37;;;;;;;1.10;1.00;;;17.10;82.00;;;;;;4146831;28;20315;-81
2022/06/17 00:23:39;;;;;;;1.03;0.93;;;17.00;82.00;;;;;;4157825;28;20215;-81
2022/06/17 00:25:42;;;;;;;1.90;1.10;;;17.00;81.90;;;;;;4162224;28;20216;-81
2022/06/17 00:27:44;;;;;;;1.60;1.10;;;16.90;84.30;;;;;;4161813;28;20200;-81
2022/06/17 00:29:46;;;;;;;1.37;1.10;;;16.90;85.70;;;;;;4146017;28;20212;-81
2022/06/17 00:31:47;;;;;;;1.07;0.90;;;16.90;86.60;;;;;;4159279;28;20230;-81
2022/06/17 00:33:51;;;;;;;1.30;1.10;;;16.80;87.70;;;;;;4154332;28;20777;-81
2022/06/17 00:35:55;;;;;;;2.13;1.10;;;16.80;87.90;;;;;;4155405;28;20212;-81
2022/06/17 00:37:58;;;;;;;1.40;1.03;;;16.70;90.20;;;;;;4149024;28;20759;-81
2022/06/17 00:40:50;;;;;;;2.37;1.30;;;16.70;90.90;;;;;;4148637;28;20583;-82
2022/06/17 00:43:44;;;;;;;2.23;1.40;;;16.70;90.90;;;;;;4149007;28;20611;-82
2022/06/17 00:46:36;;;;;;;2.37;1.40;;;16.60;91.00;;;;;;4148538;28;20207;-81
2022/06/17 00:49:28;;;;;;;1.60;1.10;;;16.60;90.20;;;;;;4148448;28;20213;-81
2022/06/17 00:52:21;;;;;;;1.47;1.00;;;16.50;91.20;;;;;;4148136;28;20322;-81
2022/06/17 00:55:14;;;;;;;1.87;1.17;;;16.50;91.60;;;;;;4145397;28;20200;-81
2022/06/17 00:58:06;;;;;;;1.83;1.20;;;16.40;91.10;;;;;;4148401;28;20208;-81
2022/06/17 01:00:58;;;;;;;1.20;1.10;;;16.40;90.60;;;;;;4146257;28;20226;-81
2022/06/17 01:03:50;;;;;;;1.83;1.13;;;16.40;94.10;;;;;;4142873;28;20242;-81
2022/06/17 01:06:42;;;;;;;1.70;1.30;;;16.30;93.90;;;;;;4150410;28;20218;-81
2022/06/17 01:12:44;;;;;;;2.70;1.30;;;16.20;95.10;;;;;;4152830;28;20614;-81
2022/06/17 01:15:36;;;;;;;1.97;1.30;;;16.10;96.70;;;;;;4150827;28;20202;-81
2022/06/17 01:18:28;;;;;;;2.40;1.50;;;16.10;96.60;;;;;;4151777;28;20234;-81
2022/06/17 01:21:20;;;;;;;2.90;1.30;;;16.00;95.70;;;;;;4143861;28;20685;-81
2022/06/17 01:24:12;;;;;;;3.40;1.50;;;16.00;95.70;;;;;;4155491;28;20222;-81
2022/06/17 01:27:04;;;;;;;2.70;1.50;;;15.90;96.90;;;;;;4154654;28;20216;-81
2022/06/17 01:29:57;;;;;;;2.43;1.50;;;15.90;97.00;;;;;;4156637;28;20225;-81
2022/06/17 01:32:49;;;;;;;2.17;1.50;;;15.80;97.20;;;;;;4159925;28;20227;-81
2022/06/17 01:35:41;;;;;;;2.20;1.50;;;15.80;98.10;;;;;;4153856;28;20232;-81
2022/06/17 01:38:10;;;;;;;2.97;1.50;;;15.70;98.70;;;;;;4147067;28;20218;-81
2022/06/17 01:40:13;;;;;;;3.07;1.40;;;15.60;99.90;;;;;;4149278;28;20608;-81
2022/06/17 01:42:15;;;;;;;2.57;2.00;;;15.60;99.90;;;;;;4152184;28;20220;-82
2022/06/17 01:44:20;;;;;;;2.53;1.60;;;15.50;99.90;;;;;;4156591;28;20209;-81
2022/06/17 01:46:26;;;;;;;3.07;1.63;;;15.50;99.90;;;;;;4159284;28;20215;-81
2022/06/17 01:48:33;;;;;;;3.87;1.90;;;15.40;99.90;;;;;;4157802;28;20237;-81
2022/06/17 01:50:36;;;;;;;3.07;1.60;;;15.40;99.90;;;;;;4145586;28;20241;-81
2022/06/17 01:52:44;;;;;;;2.40;1.60;;;15.30;99.90;;;;;;4151134;28;20222;-81
2022/06/17 01:54:50;;;;;;;2.90;1.73;;;15.30;99.90;;;;;;4134614;28;20226;-81
2022/06/17 01:56:56;;;;;;;3.03;1.83;;;15.20;99.90;;;;;;4147944;28;20211;-80
2022/06/17 01:59:01;;;;;;;2.67;1.60;;;15.10;99.90;;;;;;4146661;28;20300;-79
2022/06/17 02:01:06;;;;;;;2.10;1.40;;;15.10;99.90;;;;;;4148382;28;20211;-79
2022/06/17 02:03:14;;;;;;;1.70;1.37;;;15.00;99.90;;;;;;4149931;28;20295;-79
2022/06/17 02:05:16;;;;;;;2.40;1.67;;;15.00;99.90;;;;;;4149877;28;20214;-79
2022/06/17 02:07:23;;;;;;;2.97;1.60;;;14.90;99.90;;;;;;4149536;28;20292;-79
2022/06/17 02:09:25;;;;;;;3.33;1.90;;;14.90;99.90;;;;;;4149778;28;20287;-79
2022/06/17 02:11:28;;;;;;;2.53;1.90;;;14.90;99.90;;;;;;4149061;28;20310;-79
2022/06/17 02:13:32;;;;;;;2.20;1.80;;;14.80;99.90;;;;;;4147674;28;20233;-79
2022/06/17 02:15:35;;;;;;;2.60;1.60;;;14.80;99.90;;;;;;4147240;28;20284;-79
2022/06/17 02:17:41;;;;;;;2.40;1.80;;;14.70;99.90;;;;;;4137151;28;20223;-79
2022/06/17 02:19:46;;;;;;;2.37;1.60;;;14.70;99.90;;;;;;4149597;28;20208;-79
2022/06/17 02:21:52;;;;;;;3.57;1.80;;;14.60;99.90;;;;;;4146625;28;20236;-78
2022/06/17 02:23:54;;;;;;;1.80;1.47;;;14.50;99.90;;;;;;4149959;28;20757;-81
2022/06/17 02:26:00;;;;;;;1.63;1.40;;;14.50;99.90;;;;;;4150962;28;20922;-81
2022/06/17 02:28:08;;;;;;;1.30;1.20;;;14.40;99.90;;;;;;4157666;28;20226;-80
2022/06/17 02:30:11;;;;;;;3.63;1.50;;;14.40;99.90;;;;;;4144706;28;20550;-80
2022/06/17 02:32:14;;;;;;;2.17;1.70;;;14.40;99.90;;;;;;4144982;28;20587;-80
2022/06/17 02:34:19;;;;;;;2.50;1.30;;;14.70;99.90;;;;;;4149155;28;20203;-81
2022/06/17 02:36:28;;;;;;;1.23;1.10;;;14.20;99.90;;;;;;4141521;28;20288;-80
2022/06/17 02:38:34;;;;;;;1.47;1.30;;;14.20;99.90;;;;;;4145233;28;20349;-81
2022/06/17 02:40:40;;;;;;;1.10;1.00;;;14.10;99.90;;;;;;4149994;28;20208;-81
2022/06/17 02:42:43;;;;;;;1.17;1.00;;;14.10;99.90;;;;;;4151102;28;20227;-81
2022/06/17 02:44:49;;;;;;;1.77;1.30;;;13.80;99.90;;;;;;4127103;28;20764;-79
2022/06/17 02:46:54;;;;;;;1.30;1.20;;;14.00;99.90;;;;;;4144950;28;20208;-81
2022/06/17 02:48:59;;;;;;;2.10;1.30;;;13.90;99.90;;;;;;4163760;28;21018;-82
2022/06/17 02:51:01;;;;;;;3.17;1.40;;;13.60;99.90;;;;;;4151777;28;20230;-79
2022/06/17 02:53:05;;;;;;;2.37;1.33;;;13.90;99.90;;;;;;4143396;28;20891;-79
2022/06/17 02:55:13;;;;;;;2.87;1.27;;;13.90;99.90;;;;;;4144368;28;20372;-79
2022/06/17 02:57:20;;;;;;;3.03;1.50;;;13.90;99.90;;;;;;4135370;28;20235;-79
2022/06/17 02:59:28;;;;;;;1.70;1.30;;;13.90;99.90;;;;;;4139171;28;20230;-80
2022/06/17 03:01:34;;;;;;;4.13;1.47;;;13.80;99.90;;;;;;4142757;28;20301;-80
2022/06/17 03:03:36;;;;;;;1.70;1.20;;;13.80;99.90;;;;;;4162008;28;20207;-79
2022/06/17 03:05:41;;;;;;;2.03;1.20;;;13.80;99.90;;;;;;4144374;28;20208;-80
2022/06/17 03:07:44;;;;;;;2.17;1.23;;;13.80;99.90;;;;;;4130778;28;20216;-79
2022/06/17 03:09:47;;;;;;;2.50;1.40;;;13.80;99.90;;;;;;4151892;28;20279;-79
2022/06/17 03:11:53;;;;;;;1.73;1.30;;;13.80;99.90;;;;;;4148865;28;20239;-79
2022/06/17 03:13:58;;;;;;;1.90;1.33;;;13.70;99.90;;;;;;4148766;28;20225;-79
2022/06/17 03:16:03;;;;;;;2.70;1.40;;;13.70;99.90;;;;;;4151793;28;20227;-79
2022/06/17 03:18:07;;;;;;;3.90;1.30;;;13.70;99.90;;;;;;4146346;28;20213;-79
2022/06/17 03:20:14;;;;;;;2.03;1.40;;;13.60;99.90;;;;;;4149833;28;20242;-79
2022/06/17 03:22:16;;;;;;;1.43;1.10;;;13.60;99.90;;;;;;4149373;28;20253;-79
2022/06/17 03:24:23;;;;;;;2.60;1.40;;;13.60;99.90;;;;;;4150615;28;20615;-79
2022/06/17 03:26:29;;;;;;;1.50;1.20;;;13.60;99.90;;;;;;4134168;28;20232;-80
2022/06/17 03:28:34;;;;;;;2.33;1.37;;;13.50;99.90;;;;;;4147328;28;20287;-79
2022/06/17 03:30:41;;;;;;;2.77;1.40;;;13.50;99.90;;;;;;4144446;28;20290;-79
2022/06/17 03:32:46;;;;;;;1.60;1.30;;;13.40;99.90;;;;;;4143310;28;20725;-79
2022/06/17 03:34:52;;;;;;;1.97;1.50;;;13.40;99.90;;;;;;4144087;28;20208;-79
2022/06/17 03:36:58;;;;;;;2.23;1.10;;;13.40;99.90;;;;;;4147603;28;20709;-80
2022/06/17 03:39:04;;;;;;;1.80;1.37;;;13.40;99.90;;;;;;4148117;28;20312;-79
2022/06/17 03:41:12;;;;;;;2.23;1.20;;;13.30;99.90;;;;;;4144070;28;20223;-79
2022/06/17 03:43:20;;;;;;;3.13;1.30;;;13.30;99.90;;;;;;4140665;28;20207;-79
2022/06/17 03:45:26;;;;;;;2.67;1.40;;;13.30;99.90;;;;;;4147238;28;20261;-79
2022/06/17 03:47:42;;;;;;;2.57;1.07;;;13.30;99.90;;;;;;4130235;28;20243;-80
2022/06/17 03:49:53;;;;;;;1.53;1.17;;;13.30;99.90;;;;;;4141049;28;20204;-79
2022/06/17 03:52:00;;;;;;;1.60;1.40;;;13.30;99.90;;;;;;4136638;28;20229;-79
2022/06/17 03:54:02;;;;;;;4.13;1.47;;;13.30;99.90;;;;;;4148217;28;20219;-79
2022/06/17 03:56:08;;;;;;;3.27;1.63;;;13.20;99.90;;;;;;4147251;28;20212;-79
2022/06/17 03:58:16;;;;;;;1.87;1.30;;;13.20;99.90;;;;;;4147821;28;20231;-79
2022/06/17 04:00:25;;;;;;;2.47;1.60;;;13.20;99.90;;;;;;4144936;28;20301;-79
2022/06/17 04:02:30;;;;;;;2.03;1.60;;;13.20;99.90;;;;;;4139429;28;20324;-80
2022/06/17 04:04:35;;;;;;;2.07;1.47;;;13.10;99.90;;;;;;4138599;28;20243;-79
2022/06/17 04:06:41;;;;;;;2.50;1.30;;;13.20;99.90;;;;;;4143895;28;20203;-79
2022/06/17 04:08:59;;;;;;;3.23;1.60;;;13.10;99.90;;;;;;4147102;28;20684;-79
2022/06/17 04:11:01;;;;;;;3.70;1.77;;;13.10;99.90;;;;;;4147843;28;20260;-79
2022/06/17 04:13:03;;;;;;;3.63;1.60;;;13.10;99.90;;;;;;4144918;28;20327;-79
2022/06/17 04:15:14;;;;;;;2.10;1.60;;;13.10;99.90;;;;;;4147162;28;20297;-80
2022/06/17 04:17:21;;;;;;;2.03;1.60;;;13.10;99.90;;;;;;4147598;28;20289;-79
2022/06/17 04:19:25;;;;;;;3.70;1.80;;;13.10;99.90;;;;;;4147693;28;20221;-79
2022/06/17 04:21:27;;;;;;;2.50;1.60;;;13.10;99.90;;;;;;4147928;28;20355;-79
2022/06/17 04:23:33;;;;;;;3.00;1.63;;;13.10;99.90;;;;;;4148916;28;20217;-80
2022/06/17 04:25:39;;;;;;;2.10;1.60;;;13.10;99.90;;;;;;4144143;28;20303;-80
2022/06/17 04:28:01;;;;;;;5.40;2.20;;;13.20;99.90;;;;;;4151874;28;20210;-80
2022/06/17 04:30:05;;;;;;;2.07;1.80;;;13.10;99.90;;;;;;4148849;28;20214;-81
2022/06/17 04:32:15;;;;;;;2.47;1.60;;;13.10;99.90;;;;;;4146081;28;20246;-81
2022/06/17 04:34:19;;;;;;;4.80;1.80;;;13.20;99.90;;;;;;4144371;28;20582;-82
2022/06/17 04:36:25;;;;;;;1.63;1.53;;;13.10;99.90;;;;;;4149913;28;20701;-82
2022/06/17 04:38:30;;;;;;;2.70;1.70;;;13.10;99.90;;;;;;4144009;28;20274;-82
2022/06/17 04:40:45;;;;;;;4.23;1.70;;;13.10;99.90;;;;;;4143951;28;20319;-82
2022/06/17 04:42:48;;;;;;;6.17;2.23;;;13.20;99.90;;;;;;4148068;28;20735;-82
2022/06/17 04:44:51;;;;;;;4.57;2.07;;;13.20;99.90;;;;;;4150720;28;20219;-80
2022/06/17 04:46:58;;;;;;;6.40;1.80;;;13.20;99.90;;;;;;4145133;28;20235;-79
2022/06/17 04:49:01;;;;;;;2.20;1.70;;;13.20;99.90;;;;;;4138050;28;20216;-77
2022/06/17 04:51:07;;;;;;;3.37;1.90;;;13.20;99.90;;;;;;4141179;28;20215;-80
2022/06/17 04:53:09;;;;;;;2.50;1.60;;;13.20;99.90;;;;;;4140157;28;20216;-78
2022/06/17 04:55:17;;;;;;;4.60;1.57;;;13.30;99.90;;;;;;4135081;28;20243;-78
2022/06/17 04:57:19;;;;;;;2.73;1.57;;;13.30;99.90;;;;;;4141562;28;20202;-82
2022/06/17 04:59:31;;;;;;;2.73;1.50;;;13.30;99.90;;;;;;4131011;28;20228;-82
2022/06/17 05:01:33;;;;;;;1.57;1.27;;;13.30;99.90;;;;;;4148815;28;20224;-84
2022/06/17 05:03:35;;;;;;;2.13;1.50;;;13.30;99.90;;;;;;4150174;28;20196;-83
2022/06/17 05:05:39;;;;;;;2.17;1.47;;;13.50;99.90;;;;;;4169371;28;20625;-83
2022/06/17 05:07:46;;;;;;;2.60;1.60;;;13.40;99.90;;;;;;4152005;28;20212;-84
2022/06/17 05:09:52;;;;;;;1.80;1.33;;;13.40;99.90;;;;;;4158496;28;20196;-83
2022/06/17 05:12:02;;;;;;;2.40;1.40;;;13.50;99.90;;;;;;4158972;28;20278;-80
2022/06/17 05:14:10;;;;;;;3.40;1.80;;;13.50;99.90;;;;;;4152622;28;20568;-82
2022/06/17 05:16:13;;;;;;;3.40;1.80;;;13.50;99.90;;;;;;4163226;28;20200;-83
2022/06/17 05:18:15;;;;;;;4.53;1.87;;;13.60;99.90;;;;;;4157383;28;20218;-84
2022/06/17 05:20:21;;;;;;;2.50;1.70;;;13.60;99.90;;;;;;4148953;28;20227;-83
2022/06/17 05:22:32;;;;;;;2.80;1.90;;;13.60;99.90;;;;;;4153412;28;20219;-84
2022/06/17 05:24:34;;;;;;;3.57;2.10;;;13.70;99.90;;;;;;4168844;28;20211;-83
2022/06/17 05:26:36;;;;;;;5.90;2.10;;;13.70;99.90;;;;;;4157195;28;20185;-83
2022/06/17 05:28:39;;;;;;;4.40;2.37;;;13.80;99.90;;;;;;4136326;28;20298;-83
2022/06/17 05:30:44;;;;;;;5.53;2.33;;;13.80;99.90;;;;;;4149807;28;20200;-83
2022/06/17 05:32:50;;;;;;;4.90;3.20;;;13.90;99.90;;;;;;4145630;28;20239;-83
2022/06/17 05:34:51;;;;;;;4.13;2.20;;;14.00;99.90;;;;;;4142999;28;20752;-82
2022/06/17 05:36:56;;;;;;;2.40;1.70;;;14.00;99.90;;;;;;4150644;28;20237;-82
2022/06/17 05:39:01;;;;;;;2.70;1.90;;;14.10;99.90;;;;;;4144600;28;20270;-83
2022/06/17 05:41:05;;;;;;;3.47;2.00;;;14.10;99.90;;;;;;4129649;28;20303;-82
2022/06/17 05:43:07;;;;;;;4.23;2.07;;;14.20;99.90;;;;;;4130023;28;20273;-83
2022/06/17 05:45:16;;;;;;;2.77;2.00;;;14.30;99.90;;;;;;4147020;28;20274;-82
2022/06/17 05:47:18;;;;;;;3.67;1.80;;;14.30;99.90;;;;;;4143765;28;20203;-83
2022/06/17 05:49:20;;;;;;;2.10;1.80;;;14.40;99.90;;;;;;4136771;28;20211;-83
2022/06/17 05:51:21;;;;;;;4.23;2.00;;;14.50;99.90;;;;;;4147287;28;20224;-83
2022/06/17 05:53:23;;;;;;;3.10;2.00;;;14.60;99.90;;;;;;4147072;28;20208;-84
2022/06/17 05:55:27;;;;;;;2.83;2.00;;;14.60;99.90;;;;;;4146530;28;20209;-82
2022/06/17 05:57:32;;;;;;;5.03;2.53;;;14.70;99.90;;;;;;4148950;28;20243;-83
2022/06/17 05:59:34;;;;;;;3.17;1.97;;;14.80;99.90;;;;;;4143419;28;20253;-83
2022/06/17 06:01:37;;;;;;;3.70;2.27;;;14.90;99.90;;;;;;4141558;28;20232;-83
2022/06/17 06:03:42;;;;;;;6.47;2.33;;;14.80;99.90;;;;;;4142461;28;20201;-82
2022/06/17 06:05:44;;;;;;;5.03;2.50;;;15.00;99.90;;;;;;4146931;28;20216;-83
2022/06/17 06:07:46;;;;;;;3.90;2.10;;;15.10;99.90;;;;;;4147903;28;20205;-83
2022/06/17 06:09:47;;;;;;;4.87;2.30;;;15.10;99.90;;;;;;4144597;28;20632;-82
2022/06/17 06:11:49;;;;;;;2.67;1.90;;;15.20;99.90;;;;;;4133609;28;20300;-82
2022/06/17 06:13:51;;;;;;;3.33;1.80;;;15.20;99.90;;;;;;4143936;28;20946;-82
2022/06/17 06:15:55;;;;;;;3.33;2.00;;;15.30;99.90;;;;;;4147742;28;20244;-80
2022/06/17 06:17:59;;;;;;;6.17;1.83;;;15.30;99.90;;;;;;4148786;28;20231;-81
2022/06/17 06:20:01;;;;;;;3.50;1.87;;;15.40;99.90;;;;;;4143639;28;20314;-82
2022/06/17 06:22:05;;;;;;;2.80;1.70;;;15.40;99.90;;;;;;4146182;28;21006;-82
2022/06/17 06:24:08;;;;;;;3.03;1.90;;;15.50;99.90;;;;;;4144753;28;20210;-81
2022/06/17 06:26:13;;;;;;;2.27;1.50;;;15.50;99.90;;;;;;4148649;28;20242;-81
2022/06/17 06:28:18;;;;;;;4.83;1.80;;;15.60;99.90;;;;;;4140955;28;20904;-82
2022/06/17 06:30:23;;;;;;;4.30;1.80;;;15.70;99.90;;;;;;4148852;28;20202;-81
2022/06/17 06:32:25;;;;;;;4.43;2.10;;;15.80;99.90;;;;;;4140704;28;20236;-82
2022/06/17 06:34:29;;;;;;;7.07;2.10;;;15.80;99.90;;;;;;4146818;28;20215;-84
2022/06/17 06:36:31;;;;;;;5.00;1.90;;;16.00;99.90;;;;;;4143153;28;20338;-82
2022/06/17 06:38:33;;;;;;;3.80;1.70;;;16.00;99.90;;;;;;4145725;28;20249;-82
2022/06/17 06:40:35;;;;;;;2.60;1.50;;;16.10;99.90;;;;;;4144506;28;20234;-82
2022/06/17 06:42:37;;;;;;;5.50;1.90;;;16.10;99.90;;;;;;4143952;28;20289;-82
2022/06/17 06:44:41;;;;;;;2.30;1.57;;;16.20;99.90;;;;;;4144232;28;20606;-81
2022/06/17 06:46:44;;;;;;;2.77;1.63;;;16.40;99.90;;;;;;4150202;28;20212;-81
2022/06/17 06:48:46;;;;;;;4.80;1.67;;;16.30;99.90;;;;;;4148792;28;20279;-84
2022/06/17 06:50:49;;;;;;;2.90;1.90;;;16.40;99.90;;;;;;4155135;28;20200;-82
2022/06/17 06:52:51;;;;;;;2.97;1.70;;;16.40;99.90;;;;;;4151433;28;20307;-84
2022/06/17 06:54:53;;;;;;;3.57;1.80;;;16.90;99.90;;;;;;4168921;28;21235;-84
2022/06/17 06:56:59;;;;;;;6.03;2.00;;;16.70;99.90;;;;;;4155771;28;20207;-85
2022/06/17 06:59:02;;;;;;;3.97;1.80;;;16.70;99.90;;;;;;4154261;28;20234;-84
2022/06/17 07:01:04;;;;;;;2.23;1.47;;;16.70;99.90;;;;;;4152950;28;20224;-82
2022/06/17 07:03:06;;;;;;;2.53;1.50;;;16.80;99.90;;;;;;4149856;28;20239;-83
2022/06/17 07:05:09;;;;;;;2.97;1.63;;;16.80;99.90;;;;;;4151132;28;20912;-82
2022/06/17 07:07:12;;;;;;;2.33;1.30;;;16.90;99.90;;;;;;4152705;28;20277;-81
2022/06/17 07:09:15;;;;;;;3.67;1.70;;;16.90;99.90;;;;;;4158350;28;20330;-82
2022/06/17 07:11:17;;;;;;;1.80;1.47;;;17.00;99.90;;;;;;4139974;28;20216;-81
2022/06/17 07:13:21;;;;;;;3.83;1.60;;;17.00;99.90;;;;;;4162924;28;20221;-82
2022/06/17 07:15:25;;;;;;;4.23;1.53;;;17.10;99.90;;;;;;4143978;28;20207;-81
2022/06/17 07:17:27;;;;;;;3.47;1.47;;;17.20;99.90;;;;;;4144008;28;20214;-82
2022/06/17 07:19:29;;;;;;;2.87;1.20;;;17.20;99.70;;;;;;4130193;28;20217;-84
2022/06/17 07:21:31;;;;;;;1.77;1.23;;;17.30;99.40;;;;;;4159747;28;20266;-82
2022/06/17 07:23:36;;;;;;;1.63;1.33;;;17.30;99.30;;;;;;4147534;28;20257;-84
2022/06/17 07:25:39;;;;;;;1.60;1.50;;;17.40;98.90;;;;;;4145462;28;20728;-82
2022/06/17 07:27:41;;;;;;;2.30;1.10;;;17.40;98.60;;;;;;4144140;28;20281;-87
2022/06/17 07:29:46;;;;;;;4.10;1.30;;;17.50;96.80;;;;;;4142181;28;20216;-84
2022/06/17 07:31:48;;;;;;;2.83;1.10;;;17.60;95.90;;;;;;4142594;28;20228;-84
2022/06/17 07:33:50;;;;;;;2.93;1.30;;;17.60;96.30;;;;;;4147848;28;20296;-82
2022/06/17 07:35:55;;;;;;;4.07;1.30;;;17.70;96.30;;;;;;4151940;28;20228;-82
2022/06/17 07:40:17;;;;;;;4.00;1.40;;;17.80;93.60;;;;;;4163764;28;20246;-83
2022/06/17 07:42:22;;;;;;;1.27;1.17;;;17.90;93.80;;;;;;4158899;28;20576;-83
2022/06/17 07:44:23;;;;;;;7.70;1.60;;;17.90;93.10;;;;;;4130030;28;20315;-84
2022/06/17 07:46:25;;;;;;;4.80;1.30;;;18.00;93.50;;;;;;4159333;28;20231;-83
2022/06/17 07:48:28;;;;;;;3.20;1.40;;;18.10;93.00;;;;;;4139394;28;20976;-84
2022/06/17 07:50:33;;;;;;;4.13;1.43;;;18.20;93.10;;;;;;4146037;28;20217;-82
2022/06/17 07:52:35;;;;;;;2.43;1.10;;;18.20;90.10;;;;;;4142596;28;20236;-82
2022/06/17 07:54:37;;;;;;;4.03;1.20;;;18.50;88.50;;;;;;4123442;28;20888;-82
2022/06/17 07:56:41;;;;;;;2.43;0.90;;;18.20;87.20;;;;;;4143971;28;20212;-82
2022/06/17 07:58:44;;;;;;;3.77;1.60;;;18.20;88.90;;;;;;4142392;28;20247;-82
2022/06/17 08:00:46;;;;;;;1.23;1.00;;;18.30;88.90;;;;;;4139694;28;20210;-84
2022/06/17 08:02:48;;;;;;;1.90;1.23;;;18.30;89.20;;;;;;4145512;28;20235;-83
2022/06/17 08:04:50;;;;;;;3.17;1.30;;;18.50;86.90;;;;;;4143583;28;20240;-80
2022/06/17 08:06:53;;;;;;;4.57;1.20;;;18.60;84.10;;;;;;4123567;28;20695;-79
2022/06/17 08:08:57;;;;;;;3.33;1.30;;;18.60;83.20;;;;;;4141707;28;20204;-79
2022/06/17 08:11:00;;;;;;;2.90;1.37;;;18.60;80.80;;;;;;4139939;28;20228;-79
2022/06/17 08:13:05;;;;;;;3.00;1.10;;;18.80;80.10;;;;;;4138718;28;20311;-79
2022/06/17 08:15:07;;;;;;;2.20;1.10;;;18.70;78.70;;;;;;4138472;28;20275;-79
2022/06/17 08:17:10;;;;;;;2.20;1.20;;;18.80;79.50;;;;;;4142576;28;20206;-79
2022/06/17 08:19:13;;;;;;;4.17;1.20;;;18.80;77.50;;;;;;4139293;28;20217;-79
2022/06/17 08:21:16;;;;;;;5.73;1.30;;;18.90;76.70;;;;;;4136740;28;20221;-80
2022/06/17 08:23:18;;;;;;;2.43;0.87;;;18.90;77.10;;;;;;4142183;28;20218;-79
2022/06/17 08:25:20;;;;;;;2.50;0.97;;;19.00;77.80;;;;;;4139527;28;20298;-79
2022/06/17 08:27:22;;;;;;;3.53;1.30;;;19.00;72.70;;;;;;4137939;28;20219;-79
2022/06/17 08:29:28;;;;;;;5.57;1.10;;;19.10;73.20;;;;;;4135146;28;20212;-79
2022/06/17 08:31:30;;;;;;;3.70;1.30;;;19.20;72.50;;;;;;4136589;28;20323;-79
2022/06/17 08:33:32;;;;;;;4.13;1.20;;;19.20;72.40;;;;;;4138683;28;20718;-79
2022/06/17 08:35:36;;;;;;;4.27;1.17;;;19.30;70.40;;;;;;4138683;28;20214;-79
2022/06/17 08:37:38;;;;;;;2.20;1.27;;;19.30;69.30;;;;;;4140623;28;20208;-79
2022/06/17 08:39:41;;;;;;;4.60;1.40;;;19.30;69.60;;;;;;4142851;28;20225;-79
2022/06/17 08:41:55;;;;;;;5.30;1.30;;;19.40;65.90;;;;;;4140532;28;20707;-80
2022/06/17 08:44:28;;;;;;;5.20;1.33;;;19.40;65.60;;;;;;4152175;28;20228;-79
2022/06/17 08:46:47;;;;;;;3.53;1.47;;;19.50;66.90;;;;;;4141757;28;20871;-79
2022/06/17 08:49:05;;;;;;;2.90;1.30;;;19.60;67.20;;;;;;4141165;28;20224;-79
2022/06/17 08:51:22;;;;;;;2.87;1.10;;;19.60;66.80;;;;;;4136709;28;20766;-79
2022/06/17 08:53:58;;;;;;;3.80;1.20;;;19.70;65.80;;;;;;4140383;28;21002;-79
2022/06/17 08:56:05;;;;;;;3.53;1.30;;;19.70;65.70;;;;;;4137912;28;20214;-79
2022/06/17 08:58:14;;;;;;;3.93;1.40;;;19.80;63.90;;;;;;4149897;28;20248;-79
2022/06/17 09:00:20;;;;;;;2.03;1.40;;;19.80;63.40;;;;;;4152320;28;20238;-79
2022/06/17 09:02:37;;;;;;;4.53;1.27;;;19.80;64.50;;;;;;4137872;28;20247;-79
2022/06/17 09:05:01;;;;;;;1.93;1.37;;;19.90;63.60;;;;;;4154579;28;20216;-79
2022/06/17 09:07:13;;;;;;;3.07;1.53;;;20.00;63.10;;;;;;4138275;28;20313;-79
2022/06/17 09:09:34;;;;;;;1.97;1.20;;;20.00;63.40;;;;;;4139689;28;20651;-79
2022/06/17 09:11:47;;;;;;;3.87;1.30;;;20.10;63.10;;;;;;4141418;28;20212;-79
2022/06/17 09:14:10;;;;;;;2.40;1.20;;;20.20;62.60;;;;;;4138771;28;20290;-79
2022/06/17 09:16:19;;;;;;;4.33;1.37;;;20.30;59.20;;;;;;4135846;28;20233;-79
2022/06/17 09:18:28;;;;;;;2.23;1.40;;;20.30;59.80;;;;;;4137887;28;20210;-79
2022/06/17 09:20:41;;;;;;;1.73;1.10;;;20.30;58.00;;;;;;4133775;28;20289;-79
2022/06/17 09:22:48;;;;;;;2.77;1.30;;;20.30;57.00;;;;;;4133236;28;20224;-79
2022/06/17 09:24:52;;;;;;;1.73;1.20;;;20.40;56.90;;;;;;4137536;28;20215;-79
2022/06/17 09:27:00;;;;;;;2.47;1.20;;;20.40;56.20;;;;;;4142167;28;20210;-79
2022/06/17 09:29:12;;;;;;;2.43;1.40;;;20.50;56.20;;;;;;4141036;28;20235;-79
2022/06/17 09:31:20;;;;;;;4.33;1.43;;;20.50;55.00;;;;;;4140687;28;20196;-79
2022/06/17 09:33:29;;;;;;;1.53;1.00;;;20.50;54.20;;;;;;4141153;28;20207;-80
2022/06/17 09:35:36;;;;;;;4.87;1.10;;;20.60;54.10;;;;;;4141445;28;20223;-79
2022/06/17 09:37:44;;;;;;;1.73;1.20;;;20.60;54.40;;;;;;4136700;28;20993;-79
2022/06/17 09:39:52;;;;;;;2.33;1.20;;;20.60;54.80;;;;;;4140764;28;20265;-79
2022/06/17 09:42:00;;;;;;;2.20;1.20;;;20.70;55.00;;;;;;4140777;28;20231;-79
2022/06/17 09:44:07;;;;;;;3.00;1.30;;;20.80;54.30;;;;;;4143732;28;20207;-79
2022/06/17 09:46:16;;;;;;;3.47;1.37;;;20.90;54.30;;;;;;4141387;28;20215;-79
2022/06/17 09:48:24;;;;;;;1.90;1.20;;;20.90;53.80;;;;;;4139400;28;20810;-80
2022/06/17 09:50:32;;;;;;;1.20;1.10;;;21.00;53.40;;;;;;4139694;28;20274;-79
2022/06/17 09:52:40;;;;;;;9.70;1.60;;;21.10;51.80;;;;;;4138135;28;20663;-79
2022/06/17 09:54:47;;;;;;;1.60;1.07;;;21.10;50.20;;;;;;4142168;28;20218;-79
2022/06/17 09:56:56;;;;;;;5.67;1.20;;;21.10;49.70;;;;;;4142501;28;20208;-80
2022/06/17 09:59:05;;;;;;;1.80;0.90;;;21.20;50.40;;;;;;4141636;28;20211;-79
2022/06/17 10:01:11;;;;;;;2.03;1.10;;;21.30;49.60;;;;;;4140888;28;21007;-79
2022/06/17 10:03:20;;;;;;;2.77;1.10;;;21.40;49.10;;;;;;4139132;28;20212;-79
2022/06/17 10:05:34;;;;;;;2.23;1.40;;;21.50;49.40;;;;;;4153432;28;20203;-80
2022/06/17 10:07:45;;;;;;;2.40;1.33;;;21.50;49.20;;;;;;4146581;28;20208;-80
2022/06/17 10:09:59;;;;;;;1.80;1.23;;;21.60;49.00;;;;;;4146125;28;20231;-79
2022/06/17 10:12:05;;;;;;;1.97;1.13;;;21.70;48.70;;;;;;4147379;28;20583;-79
2022/06/17 10:14:18;;;;;;;0.87;0.80;;;21.90;48.40;;;;;;4126861;28;20705;-80
2022/06/17 10:19:09;;;;;;;2.33;1.00;;;22.00;47.80;;;;;;4145006;28;20227;-80
2022/06/17 10:21:27;;;;;;;1.50;0.83;;;22.00;45.90;;;;;;4130131;28;20315;-80
2022/06/17 10:23:37;;;;;;;1.73;0.87;;;22.10;46.10;;;;;;4152270;28;20207;-80
2022/06/17 10:25:51;;;;;;;3.13;1.20;;;22.20;45.30;;;;;;4143961;28;20196;-80
2022/06/17 10:28:13;;;;;;;1.20;0.90;;;22.30;44.80;;;;;;4156945;28;20693;-79
2022/06/17 10:30:21;;;;;;;5.20;1.20;;;22.30;45.00;;;;;;4142966;28;20242;-79
2022/06/17 10:32:24;;;;;;;3.20;1.20;;;22.40;45.00;;;;;;4139259;28;20307;-79
2022/06/17 10:34:32;;;;;;;2.97;1.00;;;22.50;44.80;;;;;;4138840;28;20216;-79
2022/06/17 10:36:36;;;;;;;1.03;0.90;;;22.60;44.70;;;;;;4138234;28;20289;-79
2022/06/17 10:38:42;;;;;;;2.13;0.93;;;22.70;44.60;;;;;;4141222;28;20696;-79
2022/06/17 10:40:44;;;;;;;2.53;1.20;;;22.80;44.40;;;;;;4141254;28;20296;-80
2022/06/17 10:42:47;;;;;;;1.70;0.87;;;22.90;44.10;;;;;;4141487;28;20310;-80
2022/06/17 10:44:53;;;;;;;2.67;1.17;;;23.00;44.10;;;;;;4139569;28;20933;-80
2022/06/17 10:47:00;;;;;;;2.97;1.10;;;23.10;42.70;;;;;;4152893;28;20237;-79
2022/06/17 10:49:06;;;;;;;3.03;0.90;;;23.30;42.60;;;;;;4155346;28;20235;-81
2022/06/17 10:51:09;;;;;;;1.47;0.80;;;23.30;42.10;;;;;;4125042;28;20215;-79
2022/06/17 10:53:19;;;;;;;5.23;1.27;;;23.40;41.80;;;;;;4142596;28;20202;-79
2022/06/17 10:55:31;;;;;;;3.57;0.90;;;23.60;41.60;;;;;;4145033;28;20286;-80
2022/06/17 10:57:37;;;;;;;2.17;0.87;;;23.70;41.40;;;;;;4140296;28;20234;-80
2022/06/17 10:59:44;;;;;;;3.23;0.97;;;23.80;40.70;;;;;;4125194;28;20215;-79
2022/06/17 11:01:53;;;;;;;1.37;0.93;;;24.00;40.70;;;;;;4127231;28;20294;-79
2022/06/17 11:04:12;;;;;;;5.07;1.00;;;24.10;40.20;;;;;;4142901;28;20650;-79
2022/06/17 11:06:17;;;;;;;1.00;0.80;;;24.20;39.30;;;;;;4140978;28;21101;-79
2022/06/17 11:08:24;;;;;;;1.50;0.90;;;24.40;39.90;;;;;;4136361;28;20306;-80
2022/06/17 11:10:29;;;;;;;1.60;0.93;;;24.50;39.50;;;;;;4140921;28;20247;-79
2022/06/17 11:12:36;;;;;;;1.17;0.70;;;24.70;39.50;;;;;;4127720;28;20235;-82
2022/06/17 11:14:48;;;;;;;1.00;0.83;;;24.80;38.10;;;;;;4158035;28;20239;-81
2022/06/17 11:16:51;;;;;;;1.37;0.77;;;24.90;38.40;;;;;;4150268;28;20639;-82
2022/06/17 11:18:59;;;;;;;1.80;0.90;;;25.00;36.60;;;;;;4143746;28;20211;-82